Time,TemperatureF,DewpointF,PressureIn,WindDirection,WindDirectionDegrees,WindSpeedMPH,WindSpeedGustMPH,Humidity,HourlyPrecipIn,Conditions,Clouds,dailyrainin,SoftwareType,DateUTC
2013-08-17 00:00:00,64.9,59.3,29.50,NNW,338,4.0,12.0,82,0.00,,,0.00,VWS V14.01,2013-08-17 07:00:00,
2013-08-17 00:02:00,60.4,52.5,29.50,North,349,0.0,13.0,75,0.00,,,0.00,VWS V14.01,2013-08-17 07:02:00,
2013-08-17 00:07:00,60.3,52.3,29.50,North,349,0.0,13.0,75,0.00,,,0.00,VWS V14.01,2013-08-17 07:07:00,
2013-08-17 00:12:00,60.3,52.0,29.50,North,349,0.0,13.0,74,0.00,,,0.00,VWS V14.01,2013-08-17 07:12:00,
2013-08-17 00:17:00,60.1,51.8,29.51,North,349,0.0,13.0,74,0.00,,,0.00,VWS V14.01,2013-08-17 07:17:00,
2013-08-17 00:22:00,59.9,51.6,29.51,North,349,0.0,13.0,74,0.00,,,0.00,VWS V14.01,2013-08-17 07:22:00,
2013-08-17 00:27:00,59.6,51.7,29.51,North,349,0.0,13.0,75,0.00,,,0.00,VWS V14.01,2013-08-17 07:27:00,
2013-08-17 00:30:00,64.0,58.7,29.49,NNW,338,3.0,7.0,83,0.00,,,0.00,VWS V14.01,2013-08-17 07:30:00,
2013-08-17 00:32:00,59.5,51.9,29.50,North,349,0.0,13.0,76,0.00,,,0.00,VWS V14.01,2013-08-17 07:32:00,
2013-08-17 00:37:00,59.4,51.8,29.50,North,349,0.0,13.0,76,0.00,,,0.00,VWS V14.01,2013-08-17 07:37:00,
2013-08-17 00:42:00,59.2,51.7,29.50,North,349,0.0,13.0,76,0.00,,,0.00,VWS V14.01,2013-08-17 07:42:00,
2013-08-17 00:47:00,59.1,51.5,29.50,North,349,0.0,13.0,76,0.00,,,0.00,VWS V14.01,2013-08-17 07:47:00,
2013-08-17 00:52:00,59.0,51.8,29.50,North,349,0.0,13.0,77,0.00,,,0.00,VWS V14.01,2013-08-17 07:52:00,
2013-08-17 00:57:00,58.9,51.7,29.50,North,349,0.0,13.0,77,0.00,,,0.00,VWS V14.01,2013-08-17 07:57:00,
2013-08-17 01:00:00,63.5,58.6,29.50,NNW,338,2.0,6.0,84,0.00,,,0.00,VWS V14.01,2013-08-17 08:00:00,
2013-08-17 01:02:00,58.8,52.0,29.50,North,349,0.0,13.0,78,0.00,,,0.00,VWS V14.01,2013-08-17 08:02:00,
2013-08-17 01:07:00,58.8,52.0,29.50,North,349,1.0,13.0,78,0.00,,,0.00,VWS V14.01,2013-08-17 08:07:00,
2013-08-17 01:12:00,58.7,52.2,29.50,North,349,0.0,13.0,79,0.00,,,0.00,VWS V14.01,2013-08-17 08:12:00,
2013-08-17 01:17:00,58.6,52.1,29.51,North,349,0.0,13.0,79,0.00,,,0.00,VWS V14.01,2013-08-17 08:17:00,
2013-08-17 01:22:00,58.5,52.4,29.50,North,349,1.0,13.0,80,0.00,,,0.00,VWS V14.01,2013-08-17 08:22:00,
2013-08-17 01:27:00,58.4,52.3,29.51,North,349,0.0,13.0,80,0.00,,,0.00,VWS V14.01,2013-08-17 08:27:00,
2013-08-17 01:30:00,63.0,58.1,29.50,NNW,338,2.0,5.0,84,0.00,,,0.00,VWS V14.01,2013-08-17 08:30:00,
2013-08-17 01:32:00,58.3,52.2,29.50,North,349,0.0,13.0,80,0.00,,,0.00,VWS V14.01,2013-08-17 08:32:00,
2013-08-17 01:37:00,58.1,52.0,29.50,North,349,0.0,13.0,80,0.00,,,0.00,VWS V14.01,2013-08-17 08:37:00,
2013-08-17 01:42:00,58.0,51.9,29.50,North,349,0.0,13.0,80,0.00,,,0.00,VWS V14.01,2013-08-17 08:42:00,
2013-08-17 01:47:00,57.8,51.7,29.50,North,349,0.0,13.0,80,0.00,,,0.00,VWS V14.01,2013-08-17 08:47:00,
2013-08-17 01:52:00,57.8,51.7,29.50,North,349,0.0,13.0,80,0.00,,,0.00,VWS V14.01,2013-08-17 08:52:00,
2013-08-17 01:57:00,57.8,51.7,29.50,North,349,0.0,13.0,80,0.00,,,0.00,VWS V14.01,2013-08-17 08:57:00,
2013-08-17 02:00:00,62.8,58.2,29.50,NNW,338,0.0,2.0,85,0.00,,,0.00,VWS V14.01,2013-08-17 09:00:00,
2013-08-17 02:02:00,57.6,51.5,29.50,North,349,0.0,13.0,80,0.00,,,0.00,VWS V14.01,2013-08-17 09:02:00,
2013-08-17 02:07:00,57.5,51.7,29.50,North,349,0.0,13.0,81,0.00,,,0.00,VWS V14.01,2013-08-17 09:07:00,
2013-08-17 02:12:00,57.5,51.7,29.50,North,349,0.0,13.0,81,0.00,,,0.00,VWS V14.01,2013-08-17 09:12:00,
2013-08-17 02:17:00,57.3,51.2,29.50,North,349,0.0,13.0,80,0.00,,,0.00,VWS V14.01,2013-08-17 09:17:00,
2013-08-17 02:22:00,57.2,51.1,29.50,North,349,0.0,13.0,80,0.00,,,0.00,VWS V14.01,2013-08-17 09:22:00,
2013-08-17 02:27:00,57.0,50.9,29.50,North,349,0.0,13.0,80,0.00,,,0.00,VWS V14.01,2013-08-17 09:27:00,
2013-08-17 02:30:00,62.3,57.7,29.49,NNW,338,0.0,0.0,85,0.00,,,0.00,VWS V14.01,2013-08-17 09:30:00,
2013-08-17 02:32:00,56.7,50.9,29.49,North,349,0.0,13.0,81,0.00,,,0.00,VWS V14.01,2013-08-17 09:32:00,
2013-08-17 02:37:00,56.7,50.9,29.49,North,349,0.0,13.0,81,0.00,,,0.00,VWS V14.01,2013-08-17 09:37:00,
2013-08-17 02:42:00,56.4,51.0,29.49,North,349,0.0,13.0,82,0.00,,,0.00,VWS V14.01,2013-08-17 09:42:00,
2013-08-17 02:47:00,56.3,50.9,29.49,North,349,0.0,13.0,82,0.00,,,0.00,VWS V14.01,2013-08-17 09:47:00,
2013-08-17 02:52:00,56.4,51.0,29.49,North,349,0.0,13.0,82,0.00,,,0.00,VWS V14.01,2013-08-17 09:52:00,
2013-08-17 02:57:00,56.2,51.1,29.49,North,349,0.0,13.0,83,0.00,,,0.00,VWS V14.01,2013-08-17 09:57:00,
2013-08-17 03:00:00,62.2,58.0,29.49,NNW,338,0.0,0.0,86,0.00,,,0.00,VWS V14.01,2013-08-17 10:00:00,
2013-08-17 03:02:00,56.3,51.2,29.49,North,349,0.0,13.0,83,0.00,,,0.00,VWS V14.01,2013-08-17 10:02:00,
2013-08-17 03:07:00,56.2,51.1,29.49,North,349,0.0,13.0,83,0.00,,,0.00,VWS V14.01,2013-08-17 10:07:00,
2013-08-17 03:12:00,56.2,51.1,29.49,North,349,0.0,13.0,83,0.00,,,0.00,VWS V14.01,2013-08-17 10:12:00,
2013-08-17 03:17:00,56.2,51.1,29.49,North,349,0.0,13.0,83,0.00,,,0.00,VWS V14.01,2013-08-17 10:17:00,
2013-08-17 03:22:00,56.4,51.6,29.49,North,349,0.0,13.0,84,0.00,,,0.00,VWS V14.01,2013-08-17 10:22:00,
2013-08-17 03:27:00,56.6,51.5,29.49,North,349,0.0,13.0,83,0.00,,,0.00,VWS V14.01,2013-08-17 10:27:00,
2013-08-17 03:30:00,61.7,57.2,29.48,NNW,338,0.0,0.0,85,0.00,,,0.00,VWS V14.01,2013-08-17 10:30:00,
2013-08-17 03:32:00,56.5,51.7,29.49,North,349,1.0,13.0,84,0.00,,,0.00,VWS V14.01,2013-08-17 10:32:00,
2013-08-17 03:37:00,56.6,51.8,29.50,North,349,0.0,13.0,84,0.00,,,0.00,VWS V14.01,2013-08-17 10:37:00,
2013-08-17 03:42:00,56.6,51.8,29.50,North,349,0.0,13.0,84,0.00,,,0.00,VWS V14.01,2013-08-17 10:42:00,
2013-08-17 03:47:00,56.6,51.5,29.50,North,349,0.0,13.0,83,0.00,,,0.00,VWS V14.01,2013-08-17 10:47:00,
2013-08-17 03:52:00,56.8,51.7,29.50,North,349,0.0,13.0,83,0.00,,,0.00,VWS V14.01,2013-08-17 10:52:00,
2013-08-17 03:57:00,56.8,51.7,29.49,North,349,0.0,13.0,83,0.00,,,0.00,VWS V14.01,2013-08-17 10:57:00,
2013-08-17 04:00:00,60.8,56.9,29.48,NNW,338,0.0,0.0,87,0.00,,,0.00,VWS V14.01,2013-08-17 11:00:00,
2013-08-17 04:02:00,56.7,51.6,29.49,North,349,0.0,13.0,83,0.00,,,0.00,VWS V14.01,2013-08-17 11:02:00,
2013-08-17 04:07:00,56.8,51.7,29.49,North,349,0.0,13.0,83,0.00,,,0.00,VWS V14.01,2013-08-17 11:07:00,
2013-08-17 04:12:00,56.8,51.7,29.50,North,349,0.0,13.0,83,0.00,,,0.00,VWS V14.01,2013-08-17 11:12:00,
2013-08-17 04:17:00,56.7,51.6,29.49,North,349,0.0,13.0,83,0.00,,,0.00,VWS V14.01,2013-08-17 11:17:00,
2013-08-17 04:22:00,56.7,51.6,29.49,North,349,0.0,13.0,83,0.00,,,0.00,VWS V14.01,2013-08-17 11:22:00,
2013-08-17 04:27:00,56.7,51.6,29.50,North,349,0.0,13.0,83,0.00,,,0.00,VWS V14.01,2013-08-17 11:27:00,
2013-08-17 04:30:00,60.4,56.2,29.48,NNW,338,0.0,0.0,86,0.00,,,0.00,VWS V14.01,2013-08-17 11:30:00,
2013-08-17 04:33:00,56.8,51.7,29.49,North,349,0.0,13.0,83,0.00,,,0.00,VWS V14.01,2013-08-17 11:33:00,
2013-08-17 04:38:00,56.7,51.6,29.49,North,349,0.0,13.0,83,0.00,,,0.00,VWS V14.01,2013-08-17 11:38:00,
2013-08-17 04:43:00,56.7,51.6,29.49,North,349,0.0,13.0,83,0.00,,,0.00,VWS V14.01,2013-08-17 11:43:00,
2013-08-17 04:48:00,56.6,51.2,29.49,North,349,0.0,13.0,82,0.00,,,0.00,VWS V14.01,2013-08-17 11:48:00,
2013-08-17 04:53:00,56.5,51.4,29.49,North,349,0.0,13.0,83,0.00,,,0.00,VWS V14.01,2013-08-17 11:53:00,
2013-08-17 04:58:00,56.5,51.4,29.49,North,349,0.0,13.0,83,0.00,,,0.00,VWS V14.01,2013-08-17 11:58:00,
2013-08-17 05:00:00,60.2,56.3,29.49,NNW,338,0.0,1.0,87,0.00,,,0.00,VWS V14.01,2013-08-17 12:00:00,
2013-08-17 05:03:00,56.6,51.5,29.49,North,349,0.0,13.0,83,0.00,,,0.00,VWS V14.01,2013-08-17 12:03:00,
2013-08-17 05:08:00,56.6,51.5,29.49,North,349,0.0,13.0,83,0.00,,,0.00,VWS V14.01,2013-08-17 12:08:00,
2013-08-17 05:13:00,56.5,51.1,29.49,North,349,0.0,13.0,82,0.00,,,0.00,VWS V14.01,2013-08-17 12:13:00,
2013-08-17 05:18:00,56.5,51.1,29.50,North,349,0.0,13.0,82,0.00,,,0.00,VWS V14.01,2013-08-17 12:18:00,
2013-08-17 05:23:00,56.4,51.0,29.50,North,349,0.0,13.0,82,0.00,,,0.00,VWS V14.01,2013-08-17 12:23:00,
2013-08-17 05:28:00,56.2,50.8,29.50,North,349,0.0,13.0,82,0.00,,,0.00,VWS V14.01,2013-08-17 12:28:00,
2013-08-17 05:30:00,59.7,55.8,29.48,NNW,338,0.0,3.0,87,0.00,,,0.00,VWS V14.01,2013-08-17 12:30:00,
2013-08-17 05:33:00,56.2,50.8,29.50,North,349,0.0,13.0,82,0.00,,,0.00,VWS V14.01,2013-08-17 12:33:00,
2013-08-17 05:38:00,56.1,51.0,29.50,North,349,0.0,13.0,83,0.00,,,0.00,VWS V14.01,2013-08-17 12:38:00,
2013-08-17 05:43:00,56.1,50.7,29.50,North,349,0.0,13.0,82,0.00,,,0.00,VWS V14.01,2013-08-17 12:43:00,
2013-08-17 05:48:00,56.1,50.7,29.50,North,349,0.0,13.0,82,0.00,,,0.00,VWS V14.01,2013-08-17 12:48:00,
2013-08-17 05:53:00,56.2,50.8,29.50,North,349,0.0,13.0,82,0.00,,,0.00,VWS V14.01,2013-08-17 12:53:00,
2013-08-17 05:58:00,56.1,50.7,29.50,North,349,0.0,13.0,82,0.00,,,0.00,VWS V14.01,2013-08-17 12:58:00,
2013-08-17 06:00:00,59.3,55.8,29.49,NNW,338,0.0,4.0,88,0.00,,,0.00,VWS V14.01,2013-08-17 13:00:00,
2013-08-17 06:03:00,56.0,50.3,29.50,North,349,0.0,13.0,81,0.00,,,0.00,VWS V14.01,2013-08-17 13:03:00,
2013-08-17 06:08:00,56.0,50.6,29.50,North,349,0.0,13.0,82,0.00,,,0.00,VWS V14.01,2013-08-17 13:08:00,
2013-08-17 06:13:00,56.0,50.6,29.50,North,349,0.0,13.0,82,0.00,,,0.00,VWS V14.01,2013-08-17 13:13:00,
2013-08-17 06:18:00,56.0,50.6,29.50,North,349,0.0,13.0,82,0.00,,,0.00,VWS V14.01,2013-08-17 13:18:00,
2013-08-17 06:23:00,56.1,50.7,29.51,North,349,0.0,13.0,82,0.00,,,0.00,VWS V14.01,2013-08-17 13:23:00,
2013-08-17 06:28:00,56.1,50.7,29.51,North,349,0.0,13.0,82,0.00,,,0.00,VWS V14.01,2013-08-17 13:28:00,
2013-08-17 06:30:00,58.9,55.4,29.49,SSW,202,0.0,4.0,88,0.00,,,0.00,VWS V14.01,2013-08-17 13:30:00,
2013-08-17 06:33:00,55.8,50.4,29.51,North,349,0.0,13.0,82,0.00,,,0.00,VWS V14.01,2013-08-17 13:33:00,
2013-08-17 06:38:00,55.8,50.4,29.51,North,349,0.0,13.0,82,0.00,,,0.00,VWS V14.01,2013-08-17 13:38:00,
2013-08-17 06:43:00,55.8,50.7,29.51,North,349,0.0,13.0,83,0.00,,,0.00,VWS V14.01,2013-08-17 13:43:00,
2013-08-17 06:48:00,55.6,50.5,29.51,North,349,0.0,13.0,83,0.00,,,0.00,VWS V14.01,2013-08-17 13:48:00,
2013-08-17 06:53:00,55.7,50.6,29.51,North,349,0.0,13.0,83,0.00,,,0.00,VWS V14.01,2013-08-17 13:53:00,
2013-08-17 06:58:00,55.5,50.4,29.51,North,349,0.0,13.0,83,0.00,,,0.00,VWS V14.01,2013-08-17 13:58:00,
2013-08-17 07:00:00,58.4,54.5,29.50,SSW,202,0.0,0.0,87,0.00,,,0.00,VWS V14.01,2013-08-17 14:00:00,
2013-08-17 07:03:00,55.6,50.8,29.51,North,349,0.0,13.0,84,0.00,,,0.00,VWS V14.01,2013-08-17 14:03:00,
2013-08-17 07:08:00,55.5,50.8,29.51,North,349,0.0,13.0,84,0.00,,,0.00,VWS V14.01,2013-08-17 14:08:00,
2013-08-17 07:13:00,55.8,51.0,29.51,North,349,0.0,13.0,84,0.00,,,0.00,VWS V14.01,2013-08-17 14:13:00,
2013-08-17 07:18:00,56.0,51.2,29.51,North,349,0.0,13.0,84,0.00,,,0.00,VWS V14.01,2013-08-17 14:18:00,
2013-08-17 07:23:00,55.8,50.7,29.52,North,349,0.0,13.0,83,0.00,,,0.00,VWS V14.01,2013-08-17 14:23:00,
2013-08-17 07:28:00,55.6,50.5,29.51,North,349,0.0,13.0,83,0.00,,,0.00,VWS V14.01,2013-08-17 14:28:00,
2013-08-17 07:30:00,57.8,54.3,29.50,SSW,202,0.0,0.0,88,0.00,,,0.00,VWS V14.01,2013-08-17 14:30:00,
2013-08-17 07:33:00,55.5,50.4,29.52,North,349,0.0,13.0,83,0.00,,,0.00,VWS V14.01,2013-08-17 14:33:00,
2013-08-17 07:38:00,55.6,50.8,29.52,North,349,0.0,13.0,84,0.00,,,0.00,VWS V14.01,2013-08-17 14:38:00,
2013-08-17 07:43:00,55.8,51.0,29.52,North,349,0.0,13.0,84,0.00,,,0.00,VWS V14.01,2013-08-17 14:43:00,
2013-08-17 07:56:00,55.7,50.6,29.52,North,0,0.0,1.0,83,0.00,,,0.00,VWS V14.01,2013-08-17 14:56:00,
2013-08-17 08:00:00,58.0,54.8,29.51,SSW,202,0.0,0.0,89,0.00,,,0.00,VWS V14.01,2013-08-17 15:00:00,
2013-08-17 08:01:00,55.8,51.0,29.52,North,349,0.0,0.0,84,0.00,,,0.00,VWS V14.01,2013-08-17 15:01:00,
2013-08-17 08:06:00,56.8,52.3,29.52,North,349,0.0,2.0,85,0.00,,,0.00,VWS V14.01,2013-08-17 15:06:00,
2013-08-17 08:11:00,57.4,52.6,29.52,North,349,0.0,2.0,84,0.00,,,0.00,VWS V14.01,2013-08-17 15:11:00,
2013-08-17 08:16:00,58.3,53.2,29.52,North,349,0.0,2.0,83,0.00,,,0.00,VWS V14.01,2013-08-17 15:16:00,
2013-08-17 08:21:00,58.9,52.8,29.52,North,349,0.0,3.0,80,0.00,,,0.00,VWS V14.01,2013-08-17 15:21:00,
2013-08-17 08:26:00,59.3,52.8,29.53,North,349,0.0,3.0,79,0.00,,,0.00,VWS V14.01,2013-08-17 15:26:00,
2013-08-17 08:30:00,58.7,54.8,29.51,SSW,202,1.0,4.0,87,0.00,,,0.00,VWS V14.01,2013-08-17 15:30:00,
2013-08-17 08:31:00,59.9,53.4,29.53,North,349,0.0,3.0,79,0.00,,,0.00,VWS V14.01,2013-08-17 15:31:00,
2013-08-17 08:36:00,60.6,53.4,29.53,North,349,0.0,3.0,77,0.00,,,0.00,VWS V14.01,2013-08-17 15:36:00,
2013-08-17 08:41:00,61.3,53.3,29.52,North,349,0.0,3.0,75,0.00,,,0.00,VWS V14.01,2013-08-17 15:41:00,
2013-08-17 08:46:00,62.0,54.0,29.52,North,349,0.0,3.0,75,0.00,,,0.00,VWS V14.01,2013-08-17 15:46:00,
2013-08-17 08:51:00,62.8,54.4,29.52,North,349,0.0,3.0,74,0.00,,,0.00,VWS V14.01,2013-08-17 15:51:00,
2013-08-17 08:56:00,64.1,54.9,29.53,North,349,0.0,3.0,72,0.00,,,0.00,VWS V14.01,2013-08-17 15:56:00,
2013-08-17 09:00:00,60.2,55.3,29.52,SSW,202,1.0,3.0,84,0.00,,,0.00,VWS V14.01,2013-08-17 16:00:00,
2013-08-17 09:01:00,65.2,54.8,29.52,North,349,0.0,3.0,69,0.00,,,0.00,VWS V14.01,2013-08-17 16:01:00,
2013-08-17 09:06:00,65.9,54.2,29.52,North,349,0.0,5.0,66,0.00,,,0.00,VWS V14.01,2013-08-17 16:06:00,
2013-08-17 09:11:00,66.5,54.0,29.52,North,350,0.0,5.0,64,0.00,,,0.00,VWS V14.01,2013-08-17 16:11:00,
2013-08-17 09:16:00,65.8,53.3,29.52,North,350,0.0,5.0,64,0.00,,,0.00,VWS V14.01,2013-08-17 16:16:00,
2013-08-17 09:21:00,64.9,53.3,29.52,North,350,5.0,5.0,66,0.00,,,0.00,VWS V14.01,2013-08-17 16:21:00,
2013-08-17 09:26:00,64.1,53.3,29.52,North,350,2.0,6.0,68,0.00,,,0.00,VWS V14.01,2013-08-17 16:26:00,
2013-08-17 09:30:00,62.7,55.8,29.52,SSW,202,0.0,5.0,78,0.00,,,0.00,VWS V14.01,2013-08-17 16:30:00,
2013-08-17 09:31:00,63.7,53.0,29.52,North,350,0.0,6.0,68,0.00,,,0.00,VWS V14.01,2013-08-17 16:31:00,
2013-08-17 09:36:00,63.6,53.3,29.52,North,350,0.0,6.0,69,0.00,,,0.00,VWS V14.01,2013-08-17 16:36:00,
2013-08-17 09:41:00,63.7,53.3,29.52,North,350,0.0,6.0,69,0.00,,,0.00,VWS V14.01,2013-08-17 16:41:00,
2013-08-17 09:46:00,63.9,53.5,29.52,North,350,0.0,6.0,69,0.00,,,0.00,VWS V14.01,2013-08-17 16:46:00,
2013-08-17 09:51:00,64.3,53.5,29.52,NNE,23,5.0,6.0,68,0.00,,,0.00,VWS V14.01,2013-08-17 16:51:00,
2013-08-17 09:56:00,64.3,54.3,29.53,SE,146,3.0,9.0,70,0.00,,,0.00,VWS V14.01,2013-08-17 16:56:00,
2013-08-17 10:00:00,65.5,56.2,29.52,SSW,202,0.0,5.0,72,0.00,,,0.00,VWS V14.01,2013-08-17 17:00:00,
2013-08-17 10:01:00,64.9,54.1,29.53,SE,146,3.0,9.0,68,0.00,,,0.00,VWS V14.01,2013-08-17 17:01:00,
2013-08-17 10:06:00,65.2,54.0,29.53,SE,145,3.0,9.0,67,0.00,,,0.00,VWS V14.01,2013-08-17 17:06:00,
2013-08-17 10:11:00,64.8,54.0,29.52,SE,145,3.0,9.0,68,0.00,,,0.00,VWS V14.01,2013-08-17 17:11:00,
2013-08-17 10:16:00,65.1,54.3,29.52,SE,145,3.0,9.0,68,0.00,,,0.00,VWS V14.01,2013-08-17 17:16:00,
2013-08-17 10:21:00,65.5,54.3,29.52,SE,145,2.0,9.0,67,0.00,,,0.00,VWS V14.01,2013-08-17 17:21:00,
2013-08-17 10:26:00,65.8,54.5,29.52,SE,145,0.0,9.0,67,0.00,,,0.00,VWS V14.01,2013-08-17 17:26:00,
2013-08-17 10:30:00,68.7,57.7,29.52,SSW,202,1.0,6.0,68,0.00,,,0.00,VWS V14.01,2013-08-17 17:30:00,
2013-08-17 10:31:00,65.8,53.7,29.52,SE,145,4.0,9.0,65,0.00,,,0.00,VWS V14.01,2013-08-17 17:31:00,
2013-08-17 10:36:00,65.9,54.2,29.52,SE,145,2.0,9.0,66,0.00,,,0.00,VWS V14.01,2013-08-17 17:36:00,
2013-08-17 10:41:00,67.1,55.0,29.51,SE,144,3.0,9.0,65,0.00,,,0.00,VWS V14.01,2013-08-17 17:41:00,
2013-08-17 10:46:00,68.0,55.0,29.52,SE,144,2.0,9.0,63,0.00,,,0.00,VWS V14.01,2013-08-17 17:46:00,
2013-08-17 10:51:00,68.9,54.5,29.51,SE,145,3.0,9.0,60,0.00,,,0.00,VWS V14.01,2013-08-17 17:51:00,
2013-08-17 10:56:00,68.9,54.5,29.52,SE,145,8.0,9.0,60,0.00,,,0.00,VWS V14.01,2013-08-17 17:56:00,
2013-08-17 11:00:00,71.0,57.3,29.52,SSW,202,1.0,6.0,62,0.00,,,0.00,VWS V14.01,2013-08-17 18:00:00,
2013-08-17 11:01:00,69.4,54.9,29.52,SE,135,1.0,9.0,60,0.00,,,0.00,VWS V14.01,2013-08-17 18:01:00,
2013-08-17 11:06:00,70.5,54.5,29.52,SE,136,5.0,9.0,57,0.00,,,0.00,VWS V14.01,2013-08-17 18:06:00,
2013-08-17 11:11:00,70.5,54.5,29.52,SE,137,5.0,9.0,57,0.00,,,0.00,VWS V14.01,2013-08-17 18:11:00,
2013-08-17 11:16:00,70.7,55.2,29.52,SE,136,4.0,9.0,58,0.00,,,0.00,VWS V14.01,2013-08-17 18:16:00,
2013-08-17 11:21:00,71.6,55.1,29.51,SE,136,2.0,9.0,56,0.00,,,0.00,VWS V14.01,2013-08-17 18:21:00,
2013-08-17 11:26:00,72.2,55.7,29.51,SE,136,4.0,9.0,56,0.00,,,0.00,VWS V14.01,2013-08-17 18:26:00,
2013-08-17 11:30:00,73.1,58.9,29.52,SSW,202,2.0,9.0,61,0.00,,,0.00,VWS V14.01,2013-08-17 18:30:00,
2013-08-17 11:31:00,72.6,55.5,29.51,SE,136,2.0,9.0,55,0.00,,,0.00,VWS V14.01,2013-08-17 18:31:00,
2013-08-17 11:36:00,72.3,55.2,29.51,SE,136,6.0,9.0,55,0.00,,,0.00,VWS V14.01,2013-08-17 18:36:00,
2013-08-17 11:41:00,71.4,54.9,29.51,SE,136,3.0,9.0,56,0.00,,,0.00,VWS V14.01,2013-08-17 18:41:00,
2013-08-17 11:46:00,71.0,55.0,29.51,SE,136,2.0,9.0,57,0.00,,,0.00,VWS V14.01,2013-08-17 18:46:00,
2013-08-17 11:51:00,70.9,55.4,29.51,SE,136,3.0,9.0,58,0.00,,,0.00,VWS V14.01,2013-08-17 18:51:00,
2013-08-17 11:56:00,70.8,55.3,29.51,SE,140,3.0,9.0,58,0.00,,,0.00,VWS V14.01,2013-08-17 18:56:00,
2013-08-17 12:00:00,70.9,58.1,29.53,SSW,202,4.0,12.0,64,0.00,,,0.00,VWS V14.01,2013-08-17 19:00:00,
2013-08-17 12:01:00,70.2,55.2,29.51,SE,140,9.0,11.0,59,0.00,,,0.00,VWS V14.01,2013-08-17 19:01:00,
2013-08-17 12:06:00,69.4,55.4,29.51,SE,137,3.0,11.0,61,0.00,,,0.00,VWS V14.01,2013-08-17 19:06:00,
2013-08-17 12:11:00,69.8,55.8,29.51,SE,138,3.0,11.0,61,0.00,,,0.00,VWS V14.01,2013-08-17 19:11:00,
2013-08-17 12:16:00,69.7,55.2,29.51,SE,138,4.0,11.0,60,0.00,,,0.00,VWS V14.01,2013-08-17 19:16:00,
2013-08-17 12:21:00,69.3,55.7,29.51,SE,139,4.0,11.0,62,0.00,,,0.00,VWS V14.01,2013-08-17 19:21:00,
2013-08-17 12:26:00,69.0,55.5,29.51,SE,137,5.0,11.0,62,0.00,,,0.00,VWS V14.01,2013-08-17 19:26:00,
2013-08-17 12:30:00,71.5,57.8,29.52,SSW,202,4.0,10.0,62,0.00,,,0.00,VWS V14.01,2013-08-17 19:30:00,
2013-08-17 12:31:00,68.2,55.1,29.51,SE,138,5.0,14.0,63,0.00,,,0.00,VWS V14.01,2013-08-17 19:31:00,
2013-08-17 12:36:00,68.1,55.5,29.50,SE,137,4.0,14.0,64,0.00,,,0.00,VWS V14.01,2013-08-17 19:36:00,
2013-08-17 12:41:00,68.5,55.4,29.50,SE,137,2.0,14.0,63,0.00,,,0.00,VWS V14.01,2013-08-17 19:41:00,
2013-08-17 12:46:00,68.9,56.2,29.50,SE,137,3.0,14.0,64,0.00,,,0.00,VWS V14.01,2013-08-17 19:46:00,
2013-08-17 12:51:00,69.5,55.9,29.51,SE,137,7.0,14.0,62,0.00,,,0.00,VWS V14.01,2013-08-17 19:51:00,
2013-08-17 12:56:00,69.6,55.6,29.50,SE,137,3.0,14.0,61,0.00,,,0.00,VWS V14.01,2013-08-17 19:56:00,
2013-08-17 13:00:00,73.1,57.9,29.52,SSW,202,4.0,10.0,59,0.00,,,0.00,VWS V14.01,2013-08-17 20:00:00,
2013-08-17 13:01:00,69.6,56.0,29.50,SE,137,1.0,14.0,62,0.00,,,0.00,VWS V14.01,2013-08-17 20:01:00,
2013-08-17 13:06:00,69.9,55.8,29.50,SE,137,0.0,14.0,61,0.00,,,0.00,VWS V14.01,2013-08-17 20:06:00,
2013-08-17 13:11:00,70.2,56.1,29.49,SE,138,0.0,14.0,61,0.00,,,0.00,VWS V14.01,2013-08-17 20:11:00,
2013-08-17 13:16:00,71.3,54.8,29.49,SE,136,2.0,14.0,56,0.00,,,0.00,VWS V14.01,2013-08-17 20:16:00,
2013-08-17 13:21:00,73.9,54.1,29.49,SE,135,2.0,14.0,50,0.00,,,0.00,VWS V14.01,2013-08-17 20:21:00,
2013-08-17 13:26:00,76.8,53.3,29.49,SE,135,6.0,14.0,44,0.00,,,0.00,VWS V14.01,2013-08-17 20:26:00,
2013-08-17 13:30:00,74.3,58.6,29.52,SSW,202,5.0,11.0,58,0.00,,,0.00,VWS V14.01,2013-08-17 20:30:00,
2013-08-17 13:31:00,78.5,53.5,29.49,SSE,157,6.0,14.0,42,0.00,,,0.00,VWS V14.01,2013-08-17 20:31:00,
2013-08-17 13:36:00,79.4,52.3,29.49,NNW,348,5.0,14.0,39,0.00,,,0.00,VWS V14.01,2013-08-17 20:36:00,
2013-08-17 13:41:00,80.0,51.4,29.49,NNW,347,3.0,14.0,37,0.00,,,0.00,VWS V14.01,2013-08-17 20:41:00,
2013-08-17 13:47:00,80.5,51.9,29.48,NNW,347,5.0,14.0,37,0.00,,,0.00,VWS V14.01,2013-08-17 20:47:00,
2013-08-17 13:52:00,80.9,51.5,29.48,NNW,335,6.0,14.0,36,0.00,,,0.00,VWS V14.01,2013-08-17 20:52:00,
2013-08-17 13:57:00,81.0,50.8,29.48,NW,325,3.0,14.0,35,0.00,,,0.00,VWS V14.01,2013-08-17 20:57:00,
2013-08-17 14:00:00,75.6,58.3,29.51,SSW,202,4.0,12.0,55,0.00,,,0.00,VWS V14.01,2013-08-17 21:00:00,
2013-08-17 14:02:00,80.3,50.9,29.48,NW,324,5.0,14.0,36,0.00,,,0.00,VWS V14.01,2013-08-17 21:02:00,
2013-08-17 14:07:00,80.0,50.7,29.47,NW,324,4.0,14.0,36,0.00,,,0.00,VWS V14.01,2013-08-17 21:07:00,
2013-08-17 14:12:00,79.9,51.3,29.47,NW,324,6.0,14.0,37,0.00,,,0.00,VWS V14.01,2013-08-17 21:12:00,
2013-08-17 14:17:00,79.4,50.2,29.48,NW,321,5.0,14.0,36,0.00,,,0.00,VWS V14.01,2013-08-17 21:17:00,
2013-08-17 14:22:00,79.3,50.1,29.47,NW,323,8.0,14.0,36,0.00,,,0.00,VWS V14.01,2013-08-17 21:22:00,
2013-08-17 14:27:00,79.4,50.2,29.47,NW,323,7.0,14.0,36,0.00,,,0.00,VWS V14.01,2013-08-17 21:27:00,
2013-08-17 14:30:00,77.6,58.1,29.51,SSW,202,4.0,10.0,51,0.00,,,0.00,VWS V14.01,2013-08-17 21:30:00,
2013-08-17 14:32:00,79.4,50.2,29.48,NW,323,6.0,14.0,36,0.00,,,0.00,VWS V14.01,2013-08-17 21:32:00,
2013-08-17 14:37:00,79.8,49.7,29.48,NW,323,3.0,14.0,35,0.00,,,0.00,VWS V14.01,2013-08-17 21:37:00,
2013-08-17 14:42:00,80.0,49.9,29.48,NNW,337,3.0,14.0,35,0.00,,,0.00,VWS V14.01,2013-08-17 21:42:00,
2013-08-17 14:47:00,79.7,49.7,29.47,NW,322,4.0,14.0,35,0.00,,,0.00,VWS V14.01,2013-08-17 21:47:00,
2013-08-17 14:52:00,80.1,50.0,29.46,NW,323,6.0,14.0,35,0.00,,,0.00,VWS V14.01,2013-08-17 21:52:00,
2013-08-17 14:57:00,80.7,49.8,29.46,NW,323,4.0,14.0,34,0.00,,,0.00,VWS V14.01,2013-08-17 21:57:00,
2013-08-17 15:00:00,79.7,57.7,29.51,SSW,202,3.0,9.0,47,0.00,,,0.00,VWS V14.01,2013-08-17 22:00:00,
2013-08-17 15:02:00,80.9,50.7,29.46,NW,326,4.0,14.0,35,0.00,,,0.00,VWS V14.01,2013-08-17 22:02:00,
2013-08-17 15:07:00,80.9,49.9,29.46,NNW,330,7.0,14.0,34,0.00,,,0.00,VWS V14.01,2013-08-17 22:07:00,
2013-08-17 15:12:00,80.6,49.7,29.45,NW,326,7.0,14.0,34,0.00,,,0.00,VWS V14.01,2013-08-17 22:12:00,
2013-08-17 15:17:00,80.4,49.5,29.46,NNW,334,6.0,14.0,34,0.00,,,0.00,VWS V14.01,2013-08-17 22:17:00,
2013-08-17 15:22:00,80.4,50.3,29.46,NNW,329,8.0,14.0,35,0.00,,,0.00,VWS V14.01,2013-08-17 22:22:00,
2013-08-17 15:27:00,80.5,49.6,29.45,NNW,332,7.0,14.0,34,0.00,,,0.00,VWS V14.01,2013-08-17 22:27:00,
2013-08-17 15:30:00,81.9,57.9,29.50,SSW,202,2.0,9.0,44,0.00,,,0.00,VWS V14.01,2013-08-17 22:30:00,
2013-08-17 15:32:00,79.7,49.7,29.44,NW,323,10.0,14.0,35,0.00,,,0.00,VWS V14.01,2013-08-17 22:32:00,
2013-08-17 15:37:00,78.9,49.7,29.43,NNW,330,7.0,14.0,36,0.00,,,0.00,VWS V14.01,2013-08-17 22:37:00,
2013-08-17 15:42:00,77.9,49.6,29.43,NW,325,9.0,14.0,37,0.00,,,0.00,VWS V14.01,2013-08-17 22:42:00,
2013-08-17 15:47:00,77.4,49.8,29.42,NNW,330,11.0,14.0,38,0.00,,,0.00,VWS V14.01,2013-08-17 22:47:00,
2013-08-17 15:52:00,78.1,50.5,29.43,NW,323,7.0,14.0,38,0.00,,,0.00,VWS V14.01,2013-08-17 22:52:00,
2013-08-17 15:57:00,78.7,50.3,29.43,NNW,330,5.0,14.0,37,0.00,,,0.00,VWS V14.01,2013-08-17 22:57:00,
2013-08-17 16:00:00,83.7,52.4,29.49,SSW,202,1.0,8.0,34,0.00,,,0.00,VWS V14.01,2013-08-17 23:00:00,
2013-08-17 16:02:00,79.5,51.0,29.44,NNW,331,4.0,14.0,37,0.00,,,0.00,VWS V14.01,2013-08-17 23:02:00,
2013-08-17 16:07:00,80.2,50.8,29.44,NNW,335,2.0,14.0,36,0.00,,,0.00,VWS V14.01,2013-08-17 23:07:00,
2013-08-17 16:12:00,80.4,51.0,29.44,NNW,345,6.0,14.0,36,0.00,,,0.00,VWS V14.01,2013-08-17 23:12:00,
2013-08-17 16:17:00,80.4,51.0,29.44,NNW,334,5.0,14.0,36,0.00,,,0.00,VWS V14.01,2013-08-17 23:17:00,
2013-08-17 16:22:00,80.6,52.0,29.44,NNW,327,7.0,14.0,37,0.00,,,0.00,VWS V14.01,2013-08-17 23:22:00,
2013-08-17 16:27:00,80.5,52.6,29.43,NNW,332,6.0,14.0,38,0.00,,,0.00,VWS V14.01,2013-08-17 23:27:00,
2013-08-17 16:30:00,86.3,54.7,29.49,NW,315,6.0,10.0,34,0.00,,,0.00,VWS V14.01,2013-08-17 23:30:00,
2013-08-17 16:32:00,79.6,52.5,29.43,NNW,336,5.0,14.0,39,0.00,,,0.00,VWS V14.01,2013-08-17 23:32:00,
2013-08-17 16:37:00,80.0,52.8,29.43,NNW,341,7.0,14.0,39,0.00,,,0.00,VWS V14.01,2013-08-17 23:37:00,
2013-08-17 16:42:00,79.5,52.4,29.43,NNW,348,3.0,14.0,39,0.00,,,0.00,VWS V14.01,2013-08-17 23:42:00,
2013-08-17 16:47:00,79.7,53.3,29.43,North,349,4.0,14.0,40,0.00,,,0.00,VWS V14.01,2013-08-17 23:47:00,
2013-08-17 16:52:00,80.0,52.8,29.43,North,350,4.0,14.0,39,0.00,,,0.00,VWS V14.01,2013-08-17 23:52:00,
2013-08-17 16:57:00,80.1,52.9,29.42,NNW,327,5.0,14.0,39,0.00,,,0.00,VWS V14.01,2013-08-17 23:57:00,
2013-08-17 17:00:00,83.7,53.9,29.49,NW,315,6.0,11.0,36,0.00,,,0.00,VWS V14.01,2013-08-18 00:00:00,
2013-08-17 17:02:00,79.7,53.3,29.43,NNW,333,4.0,14.0,40,0.00,,,0.00,VWS V14.01,2013-08-18 00:02:00,
2013-08-17 17:07:00,79.2,53.5,29.42,NNW,330,6.0,14.0,41,0.00,,,0.00,VWS V14.01,2013-08-18 00:07:00,
2013-08-17 17:12:00,78.2,53.2,29.42,NNW,337,7.0,14.0,42,0.00,,,0.00,VWS V14.01,2013-08-18 00:12:00,
2013-08-17 17:17:00,77.6,53.4,29.41,NW,319,4.0,14.0,43,0.00,,,0.00,VWS V14.01,2013-08-18 00:17:00,
2013-08-17 17:22:00,77.1,52.9,29.40,NW,319,9.0,14.0,43,0.00,,,0.00,VWS V14.01,2013-08-18 00:22:00,
2013-08-17 17:27:00,77.1,53.5,29.40,NNW,329,7.0,14.0,44,0.00,,,0.00,VWS V14.01,2013-08-18 00:27:00,
2013-08-17 17:30:00,82.8,53.2,29.49,NNW,338,6.0,12.0,36,0.00,,,0.00,VWS V14.01,2013-08-18 00:30:00,
2013-08-17 17:32:00,76.8,53.3,29.40,NNW,327,6.0,14.0,44,0.00,,,0.00,VWS V14.01,2013-08-18 00:32:00,
2013-08-17 17:37:00,76.7,53.8,29.40,North,350,4.0,14.0,45,0.00,,,0.00,VWS V14.01,2013-08-18 00:37:00,
2013-08-17 17:42:00,76.9,53.3,29.41,NNW,344,5.0,14.0,44,0.00,,,0.00,VWS V14.01,2013-08-18 00:42:00,
2013-08-17 17:47:00,77.2,53.6,29.41,NNW,332,5.0,14.0,44,0.00,,,0.00,VWS V14.01,2013-08-18 00:47:00,
2013-08-17 17:52:00,77.4,53.2,29.41,NW,322,7.0,14.0,43,0.00,,,0.00,VWS V14.01,2013-08-18 00:52:00,
2013-08-17 17:57:00,77.0,52.8,29.41,NNW,329,4.0,14.0,43,0.00,,,0.00,VWS V14.01,2013-08-18 00:57:00,
2013-08-17 18:00:00,81.7,54.4,29.48,NNW,338,5.0,10.0,39,0.00,,,0.00,VWS V14.01,2013-08-18 01:00:00,
2013-08-17 18:02:00,76.9,53.3,29.41,NNW,338,5.0,14.0,44,0.00,,,0.00,VWS V14.01,2013-08-18 01:02:00,
2013-08-17 18:07:00,76.5,53.6,29.41,NNW,342,2.0,14.0,45,0.00,,,0.00,VWS V14.01,2013-08-18 01:07:00,
2013-08-17 18:12:00,76.8,53.9,29.41,NNW,343,1.0,14.0,45,0.00,,,0.00,VWS V14.01,2013-08-18 01:12:00,
2013-08-17 18:17:00,77.2,53.6,29.40,NNW,333,2.0,14.0,44,0.00,,,0.00,VWS V14.01,2013-08-18 01:17:00,
2013-08-17 18:22:00,77.4,53.2,29.40,North,351,4.0,14.0,43,0.00,,,0.00,VWS V14.01,2013-08-18 01:22:00,
2013-08-17 18:27:00,77.6,53.4,29.41,North,352,0.0,14.0,43,0.00,,,0.00,VWS V14.01,2013-08-18 01:27:00,
2013-08-17 18:30:00,80.3,55.1,29.49,NNW,338,6.0,12.0,42,0.00,,,0.00,VWS V14.01,2013-08-18 01:30:00,
2013-08-17 18:32:00,77.9,53.6,29.41,NNW,328,6.0,14.0,43,0.00,,,0.00,VWS V14.01,2013-08-18 01:32:00,
2013-08-17 18:37:00,77.4,53.2,29.40,NNW,332,3.0,14.0,43,0.00,,,0.00,VWS V14.01,2013-08-18 01:37:00,
2013-08-17 18:42:00,76.6,53.1,29.40,NNW,332,4.0,14.0,44,0.00,,,0.00,VWS V14.01,2013-08-18 01:42:00,
2013-08-17 18:47:00,76.0,53.2,29.40,NNW,334,3.0,14.0,45,0.00,,,0.00,VWS V14.01,2013-08-18 01:47:00,
2013-08-17 18:52:00,75.1,52.9,29.40,NNW,335,3.0,14.0,46,0.00,,,0.00,VWS V14.01,2013-08-18 01:52:00,
2013-08-17 18:57:00,74.2,52.7,29.40,North,351,5.0,14.0,47,0.00,,,0.00,VWS V14.01,2013-08-18 01:57:00,
2013-08-17 19:00:00,76.9,52.7,29.48,NNW,338,7.0,14.0,43,0.00,,,0.00,VWS V14.01,2013-08-18 02:00:00,
2013-08-17 19:02:00,73.6,52.7,29.39,NNW,336,7.0,14.0,48,0.00,,,0.00,VWS V14.01,2013-08-18 02:02:00,
2013-08-17 19:07:00,72.9,52.6,29.40,North,353,5.0,14.0,49,0.00,,,0.00,VWS V14.01,2013-08-18 02:07:00,
2013-08-17 19:12:00,72.4,52.7,29.40,North,349,3.0,14.0,50,0.00,,,0.00,VWS V14.01,2013-08-18 02:12:00,
2013-08-17 19:17:00,71.9,52.8,29.40,North,353,3.0,14.0,51,0.00,,,0.00,VWS V14.01,2013-08-18 02:17:00,
2013-08-17 19:22:00,71.5,53.0,29.41,North,354,4.0,14.0,52,0.00,,,0.00,VWS V14.01,2013-08-18 02:22:00,
2013-08-17 19:27:00,71.1,53.1,29.40,North,351,3.0,14.0,53,0.00,,,0.00,VWS V14.01,2013-08-18 02:27:00,
2013-08-17 19:30:00,73.9,53.0,29.49,NNW,338,7.0,13.0,48,0.00,,,0.00,VWS V14.01,2013-08-18 02:30:00,
2013-08-17 19:32:00,70.9,52.9,29.40,North,351,3.0,14.0,53,0.00,,,0.00,VWS V14.01,2013-08-18 02:32:00,
2013-08-17 19:37:00,70.8,53.3,29.40,North,351,4.0,14.0,54,0.00,,,0.00,VWS V14.01,2013-08-18 02:37:00,
2013-08-17 19:42:00,70.4,53.0,29.40,North,349,5.0,14.0,54,0.00,,,0.00,VWS V14.01,2013-08-18 02:42:00,
2013-08-17 19:47:00,69.9,53.0,29.40,NNW,348,3.0,14.0,55,0.00,,,0.00,VWS V14.01,2013-08-18 02:47:00,
2013-08-17 19:52:00,69.4,53.0,29.40,NNW,347,3.0,14.0,56,0.00,,,0.00,VWS V14.01,2013-08-18 02:52:00,
2013-08-17 19:57:00,68.9,52.6,29.40,NNW,347,3.0,14.0,56,0.00,,,0.00,VWS V14.01,2013-08-18 02:57:00,
2013-08-17 20:00:00,71.8,53.2,29.49,NNW,338,6.0,10.0,52,0.00,,,0.00,VWS V14.01,2013-08-18 03:00:00,
2013-08-17 20:02:00,68.5,52.7,29.40,NNW,347,2.0,14.0,57,0.00,,,0.00,VWS V14.01,2013-08-18 03:02:00,
2013-08-17 20:07:00,68.2,52.4,29.40,NNW,347,3.0,14.0,57,0.00,,,0.00,VWS V14.01,2013-08-18 03:07:00,
2013-08-17 20:12:00,68.0,52.7,29.40,NNW,347,0.0,14.0,58,0.00,,,0.00,VWS V14.01,2013-08-18 03:12:00,
2013-08-17 20:17:00,67.8,52.5,29.41,NNW,347,2.0,14.0,58,0.00,,,0.00,VWS V14.01,2013-08-18 03:17:00,
2013-08-17 20:22:00,67.5,52.7,29.40,NNW,347,0.0,14.0,59,0.00,,,0.00,VWS V14.01,2013-08-18 03:22:00,
2013-08-17 20:27:00,67.2,52.4,29.40,NNW,347,2.0,14.0,59,0.00,,,0.00,VWS V14.01,2013-08-18 03:27:00,
2013-08-17 20:30:00,69.0,53.6,29.49,NNW,338,5.0,10.0,58,0.00,,,0.00,VWS V14.01,2013-08-18 03:30:00,
2013-08-17 20:32:00,67.1,52.8,29.41,NNW,347,2.0,14.0,60,0.00,,,0.00,VWS V14.01,2013-08-18 03:32:00,
2013-08-17 20:37:00,66.9,53.0,29.41,NNW,347,2.0,14.0,61,0.00,,,0.00,VWS V14.01,2013-08-18 03:37:00,
2013-08-17 20:42:00,66.7,52.8,29.41,NNW,347,1.0,14.0,61,0.00,,,0.00,VWS V14.01,2013-08-18 03:42:00,
2013-08-17 20:47:00,66.4,53.0,29.41,NNW,347,0.0,14.0,62,0.00,,,0.00,VWS V14.01,2013-08-18 03:47:00,
2013-08-17 20:52:00,66.2,52.8,29.42,NNW,347,1.0,14.0,62,0.00,,,0.00,VWS V14.01,2013-08-18 03:52:00,
2013-08-17 20:57:00,66.0,53.1,29.42,NNW,347,1.0,14.0,63,0.00,,,0.00,VWS V14.01,2013-08-18 03:57:00,
2013-08-17 21:00:00,66.2,54.5,29.50,NNW,338,5.0,9.0,66,0.00,,,0.00,VWS V14.01,2013-08-18 04:00:00,
2013-08-17 21:02:00,65.5,53.0,29.42,NNW,347,1.0,14.0,64,0.00,,,0.00,VWS V14.01,2013-08-18 04:02:00,
2013-08-17 21:07:00,65.2,53.2,29.42,NNW,347,0.0,14.0,65,0.00,,,0.00,VWS V14.01,2013-08-18 04:07:00,
2013-08-17 21:12:00,64.9,52.9,29.42,NNW,347,0.0,14.0,65,0.00,,,0.00,VWS V14.01,2013-08-18 04:12:00,
2013-08-17 21:18:00,64.6,53.0,29.42,NNW,347,0.0,14.0,66,0.00,,,0.00,VWS V14.01,2013-08-18 04:18:00,
2013-08-17 21:23:00,64.4,52.8,29.42,NNW,347,0.0,14.0,66,0.00,,,0.00,VWS V14.01,2013-08-18 04:23:00,
2013-08-17 21:28:00,64.2,52.6,29.42,NNW,347,0.0,14.0,66,0.00,,,0.00,VWS V14.01,2013-08-18 04:28:00,
2013-08-17 21:30:00,63.5,53.2,29.49,NNW,338,4.0,9.0,69,0.00,,,0.00,VWS V14.01,2013-08-18 04:30:00,
2013-08-17 21:33:00,63.9,52.7,29.42,NNW,347,1.0,14.0,67,0.00,,,0.00,VWS V14.01,2013-08-18 04:33:00,
2013-08-17 21:38:00,63.7,53.0,29.42,NNW,347,0.0,14.0,68,0.00,,,0.00,VWS V14.01,2013-08-18 04:38:00,
2013-08-17 21:43:00,63.6,52.9,29.42,NNW,347,0.0,14.0,68,0.00,,,0.00,VWS V14.01,2013-08-18 04:43:00,
2013-08-17 21:48:00,63.4,52.7,29.42,NNW,347,0.0,14.0,68,0.00,,,0.00,VWS V14.01,2013-08-18 04:48:00,
2013-08-17 21:53:00,63.2,52.9,29.41,NNW,347,2.0,14.0,69,0.00,,,0.00,VWS V14.01,2013-08-18 04:53:00,
2013-08-17 21:58:00,63.2,52.9,29.42,NNW,347,2.0,14.0,69,0.00,,,0.00,VWS V14.01,2013-08-18 04:58:00,
2013-08-17 22:00:00,62.7,52.4,29.50,North,0,2.0,6.0,69,0.00,,,0.00,VWS V14.01,2013-08-18 05:00:00,
2013-08-17 22:03:00,63.0,52.7,29.42,NNW,347,0.0,14.0,69,0.00,,,0.00,VWS V14.01,2013-08-18 05:03:00,
2013-08-17 22:08:00,62.9,53.0,29.42,NNW,347,0.0,14.0,70,0.00,,,0.00,VWS V14.01,2013-08-18 05:08:00,
2013-08-17 22:13:00,62.8,54.8,29.42,NNW,347,2.0,14.0,75,0.00,,,0.00,VWS V14.01,2013-08-18 05:13:00,
2013-08-17 22:18:00,62.3,54.7,29.43,NNW,347,0.0,14.0,76,0.00,,,0.00,VWS V14.01,2013-08-18 05:18:00,
2013-08-17 22:23:00,62.1,55.2,29.43,NNW,347,1.0,14.0,78,0.00,,,0.00,VWS V14.01,2013-08-18 05:23:00,
2013-08-17 22:28:00,61.7,55.5,29.43,NNW,347,3.0,14.0,80,0.00,,,0.00,VWS V14.01,2013-08-18 05:28:00,
2013-08-17 22:30:00,62.3,51.6,29.50,North,0,1.0,4.0,68,0.00,,,0.00,VWS V14.01,2013-08-18 05:30:00,
2013-08-17 22:33:00,61.4,55.2,29.43,NNW,347,0.0,14.0,80,0.00,,,0.00,VWS V14.01,2013-08-18 05:33:00,
2013-08-17 22:38:00,61.3,55.1,29.43,NNW,348,1.0,14.0,80,0.00,,,0.00,VWS V14.01,2013-08-18 05:38:00,
2013-08-17 22:43:00,61.2,55.3,29.42,NNW,347,1.0,14.0,81,0.00,,,0.00,VWS V14.01,2013-08-18 05:43:00,
2013-08-17 22:48:00,60.9,55.0,29.42,NNW,348,2.0,14.0,81,0.00,,,0.00,VWS V14.01,2013-08-18 05:48:00,
2013-08-17 22:53:00,60.7,54.8,29.42,NNW,348,1.0,14.0,81,0.00,,,0.00,VWS V14.01,2013-08-18 05:53:00,
2013-08-17 22:58:00,60.4,54.9,29.42,NNW,348,1.0,14.0,82,0.00,,,0.00,VWS V14.01,2013-08-18 05:58:00,
2013-08-17 23:00:00,62.1,51.8,29.50,North,0,1.0,4.0,69,0.00,,,0.00,VWS V14.01,2013-08-18 06:00:00,
2013-08-17 23:03:00,60.2,54.4,29.42,NNW,347,2.0,14.0,81,0.00,,,0.00,VWS V14.01,2013-08-18 06:03:00,
2013-08-17 23:08:00,60.1,54.6,29.42,NNW,348,0.0,14.0,82,0.00,,,0.00,VWS V14.01,2013-08-18 06:08:00,
2013-08-17 23:13:00,59.9,54.4,29.42,NNW,348,0.0,14.0,82,0.00,,,0.00,VWS V14.01,2013-08-18 06:13:00,
2013-08-17 23:18:00,59.8,54.0,29.42,NNW,348,0.0,14.0,81,0.00,,,0.00,VWS V14.01,2013-08-18 06:18:00,
2013-08-17 23:23:00,59.7,54.2,29.41,NNW,348,0.0,14.0,82,0.00,,,0.00,VWS V14.01,2013-08-18 06:23:00,
2013-08-17 23:28:00,59.7,54.2,29.42,NNW,348,0.0,14.0,82,0.00,,,0.00,VWS V14.01,2013-08-18 06:28:00,
2013-08-17 23:30:00,61.9,52.0,29.50,North,0,2.0,5.0,70,0.00,,,0.00,VWS V14.01,2013-08-18 06:30:00,
2013-08-17 23:33:00,59.6,54.1,29.42,NNW,347,0.0,14.0,82,0.00,,,0.00,VWS V14.01,2013-08-18 06:33:00,
2013-08-17 23:38:00,59.5,53.7,29.41,NNW,348,0.0,14.0,81,0.00,,,0.00,VWS V14.01,2013-08-18 06:38:00,
2013-08-17 23:43:00,59.2,53.7,29.41,NNW,347,0.0,14.0,82,0.00,,,0.00,VWS V14.01,2013-08-18 06:43:00,
2013-08-17 23:48:00,58.9,53.1,29.41,NNW,348,0.0,14.0,81,0.00,,,0.00,VWS V14.01,2013-08-18 06:48:00,
2013-08-17 23:53:00,58.8,53.3,29.41,NNW,348,0.0,14.0,82,0.00,,,0.00,VWS V14.01,2013-08-18 06:53:00,
2013-08-17 23:58:00,58.8,53.3,29.41,NNW,348,1.0,14.0,82,0.00,,,0.00,VWS V14.01,2013-08-18 06:58:00,